sensor_id;sensor_type;location;lat;lon;timestamp;P1;durP1;ratioP1;P2;durP2;ratioP2
1829;SDS011;914;48.118;11.600;2022-09-19T00:03:32;1.57;;;1.10;;
1829;SDS011;914;48.118;11.600;2022-09-19T00:05:58;1.13;;;1.07;;
1829;SDS011;914;48.118;11.600;2022-09-19T00:08:24;1.03;;;1.00;;
1829;SDS011;914;48.118;11.600;2022-09-19T00:10:49;2.77;;;1.13;;
1829;SDS011;914;48.118;11.600;2022-09-19T00:13:17;1.10;;;1.00;;
1829;SDS011;914;48.118;11.600;2022-09-19T00:15:46;3.80;;;0.97;;
1829;SDS011;914;48.118;11.600;2022-09-19T00:18:14;2.07;;;1.13;;
1829;SDS011;914;48.118;11.600;2022-09-19T00:20:41;1.00;;;1.00;;
1829;SDS011;914;48.118;11.600;2022-09-19T00:23:13;3.43;;;1.10;;
1829;SDS011;914;48.118;11.600;2022-09-19T00:25:58;1.47;;;1.33;;
1829;SDS011;914;48.118;11.600;2022-09-19T00:28:26;1.63;;;1.10;;
1829;SDS011;914;48.118;11.600;2022-09-19T00:30:53;1.57;;;1.00;;
1829;SDS011;914;48.118;11.600;2022-09-19T00:33:20;1.00;;;1.00;;
1829;SDS011;914;48.118;11.600;2022-09-19T00:35:46;2.40;;;1.30;;
1829;SDS011;914;48.118;11.600;2022-09-19T00:38:27;1.73;;;1.10;;
1829;SDS011;914;48.118;11.600;2022-09-19T00:40:53;2.60;;;1.30;;
1829;SDS011;914;48.118;11.600;2022-09-19T00:43:20;1.90;;;1.20;;
1829;SDS011;914;48.118;11.600;2022-09-19T00:45:47;2.37;;;1.27;;
1829;SDS011;914;48.118;11.600;2022-09-19T00:48:14;1.33;;;1.20;;
1829;SDS011;914;48.118;11.600;2022-09-19T00:50:42;2.27;;;1.40;;
1829;SDS011;914;48.118;11.600;2022-09-19T00:53:12;3.67;;;1.53;;
1829;SDS011;914;48.118;11.600;2022-09-19T00:55:42;2.33;;;1.20;;
1829;SDS011;914;48.118;11.600;2022-09-19T01:00:53;2.50;;;1.40;;
1829;SDS011;914;48.118;11.600;2022-09-19T01:03:19;1.63;;;1.37;;
1829;SDS011;914;48.118;11.600;2022-09-19T01:05:59;3.70;;;1.53;;
1829;SDS011;914;48.118;11.600;2022-09-19T01:08:44;1.83;;;1.50;;
1829;SDS011;914;48.118;11.600;2022-09-19T01:11:22;3.20;;;1.60;;
1829;SDS011;914;48.118;11.600;2022-09-19T01:14:21;3.70;;;1.53;;
1829;SDS011;914;48.118;11.600;2022-09-19T01:17:24;2.87;;;1.37;;
1829;SDS011;914;48.118;11.600;2022-09-19T01:22:55;1.90;;;1.30;;
1829;SDS011;914;48.118;11.600;2022-09-19T01:25:26;1.30;;;1.20;;
1829;SDS011;914;48.118;11.600;2022-09-19T01:28:09;1.80;;;1.40;;
1829;SDS011;914;48.118;11.600;2022-09-19T01:30:56;3.40;;;1.57;;
1829;SDS011;914;48.118;11.600;2022-09-19T01:36:28;1.27;;;1.10;;
1829;SDS011;914;48.118;11.600;2022-09-19T01:39:03;3.40;;;1.10;;
1829;SDS011;914;48.118;11.600;2022-09-19T01:41:31;1.07;;;0.70;;
1829;SDS011;914;48.118;11.600;2022-09-19T01:44:01;2.43;;;0.80;;
1829;SDS011;914;48.118;11.600;2022-09-19T01:49:40;0.40;;;0.40;;
1829;SDS011;914;48.118;11.600;2022-09-19T02:00:29;0.47;;;0.47;;
1829;SDS011;914;48.118;11.600;2022-09-19T02:08:55;0.30;;;0.30;;
1829;SDS011;914;48.118;11.600;2022-09-19T02:11:28;0.40;;;0.40;;
1829;SDS011;914;48.118;11.600;2022-09-19T02:13:56;0.43;;;0.43;;
1829;SDS011;914;48.118;11.600;2022-09-19T02:16:46;0.40;;;0.40;;
1829;SDS011;914;48.118;11.600;2022-09-19T02:19:28;1.47;;;0.50;;
1829;SDS011;914;48.118;11.600;2022-09-19T02:22:12;0.50;;;0.50;;
1829;SDS011;914;48.118;11.600;2022-09-19T02:24:45;0.40;;;0.40;;
1829;SDS011;914;48.118;11.600;2022-09-19T02:27:14;0.50;;;0.50;;
1829;SDS011;914;48.118;11.600;2022-09-19T02:29:49;1.20;;;0.50;;
1829;SDS011;914;48.118;11.600;2022-09-19T02:32:22;0.53;;;0.53;;
1829;SDS011;914;48.118;11.600;2022-09-19T02:34:50;0.60;;;0.60;;
1829;SDS011;914;48.118;11.600;2022-09-19T02:38:01;0.87;;;0.70;;
1829;SDS011;914;48.118;11.600;2022-09-19T02:40:24;0.80;;;0.80;;
1829;SDS011;914;48.118;11.600;2022-09-19T02:43:24;1.70;;;1.40;;
1829;SDS011;914;48.118;11.600;2022-09-19T02:46:00;2.23;;;2.03;;
1829;SDS011;914;48.118;11.600;2022-09-19T02:51:34;1.27;;;1.00;;
1829;SDS011;914;48.118;11.600;2022-09-19T02:54:14;0.90;;;0.90;;
1829;SDS011;914;48.118;11.600;2022-09-19T02:56:44;1.37;;;0.90;;
1829;SDS011;914;48.118;11.600;2022-09-19T02:59:19;2.13;;;1.10;;
1829;SDS011;914;48.118;11.600;2022-09-19T03:01:51;1.00;;;1.00;;
1829;SDS011;914;48.118;11.600;2022-09-19T03:04:21;0.80;;;0.80;;
1829;SDS011;914;48.118;11.600;2022-09-19T03:09:28;1.37;;;0.97;;
1829;SDS011;914;48.118;11.600;2022-09-19T03:12:07;1.17;;;0.90;;
1829;SDS011;914;48.118;11.600;2022-09-19T03:14:44;1.10;;;1.00;;
1829;SDS011;914;48.118;11.600;2022-09-19T03:17:15;1.73;;;0.80;;
1829;SDS011;914;48.118;11.600;2022-09-19T03:19:46;0.80;;;0.80;;
1829;SDS011;914;48.118;11.600;2022-09-19T03:22:13;0.90;;;0.90;;
1829;SDS011;914;48.118;11.600;2022-09-19T03:24:39;1.20;;;1.03;;
1829;SDS011;914;48.118;11.600;2022-09-19T03:27:06;2.70;;;1.00;;
1829;SDS011;914;48.118;11.600;2022-09-19T03:29:31;1.67;;;1.57;;
1829;SDS011;914;48.118;11.600;2022-09-19T03:31:58;1.00;;;1.00;;
1829;SDS011;914;48.118;11.600;2022-09-19T03:34:24;1.53;;;1.03;;
1829;SDS011;914;48.118;11.600;2022-09-19T03:36:49;0.63;;;0.63;;
1829;SDS011;914;48.118;11.600;2022-09-19T03:39:15;1.47;;;0.90;;
1829;SDS011;914;48.118;11.600;2022-09-19T03:41:41;1.10;;;1.10;;
1829;SDS011;914;48.118;11.600;2022-09-19T03:44:07;1.30;;;1.13;;
1829;SDS011;914;48.118;11.600;2022-09-19T03:46:32;2.60;;;0.80;;
1829;SDS011;914;48.118;11.600;2022-09-19T03:48:59;3.33;;;1.27;;
1829;SDS011;914;48.118;11.600;2022-09-19T03:51:25;1.27;;;0.77;;
1829;SDS011;914;48.118;11.600;2022-09-19T03:53:55;1.53;;;1.23;;
1829;SDS011;914;48.118;11.600;2022-09-19T03:56:21;0.80;;;0.80;;
1829;SDS011;914;48.118;11.600;2022-09-19T03:58:46;0.80;;;0.80;;
1829;SDS011;914;48.118;11.600;2022-09-19T04:01:12;3.40;;;1.10;;
1829;SDS011;914;48.118;11.600;2022-09-19T04:03:39;4.20;;;1.00;;
1829;SDS011;914;48.118;11.600;2022-09-19T04:06:06;3.07;;;1.20;;
1829;SDS011;914;48.118;11.600;2022-09-19T04:08:33;3.97;;;1.23;;
1829;SDS011;914;48.118;11.600;2022-09-19T04:10:59;3.90;;;0.90;;
1829;SDS011;914;48.118;11.600;2022-09-19T04:13:25;1.90;;;1.00;;
1829;SDS011;914;48.118;11.600;2022-09-19T04:15:55;4.27;;;1.07;;
1829;SDS011;914;48.118;11.600;2022-09-19T04:18:20;3.37;;;1.00;;
1829;SDS011;914;48.118;11.600;2022-09-19T04:20:46;1.47;;;1.17;;
1829;SDS011;914;48.118;11.600;2022-09-19T04:23:16;1.53;;;1.10;;
1829;SDS011;914;48.118;11.600;2022-09-19T04:25:42;1.27;;;1.00;;
1829;SDS011;914;48.118;11.600;2022-09-19T04:28:09;2.87;;;1.00;;
1829;SDS011;914;48.118;11.600;2022-09-19T04:30:37;4.30;;;0.90;;
1829;SDS011;914;48.118;11.600;2022-09-19T04:33:06;5.30;;;1.00;;
1829;SDS011;914;48.118;11.600;2022-09-19T04:35:34;2.37;;;0.90;;
1829;SDS011;914;48.118;11.600;2022-09-19T04:38:04;1.80;;;0.80;;
1829;SDS011;914;48.118;11.600;2022-09-19T04:40:40;1.63;;;0.83;;
1829;SDS011;914;48.118;11.600;2022-09-19T04:43:08;1.07;;;1.03;;
1829;SDS011;914;48.118;11.600;2022-09-19T04:45:35;6.50;;;1.10;;
1829;SDS011;914;48.118;11.600;2022-09-19T04:48:02;1.43;;;1.00;;
1829;SDS011;914;48.118;11.600;2022-09-19T04:50:35;3.43;;;1.10;;
1829;SDS011;914;48.118;11.600;2022-09-19T04:53:04;1.33;;;1.00;;
1829;SDS011;914;48.118;11.600;2022-09-19T04:55:30;3.60;;;0.90;;
1829;SDS011;914;48.118;11.600;2022-09-19T04:57:56;6.13;;;1.17;;
1829;SDS011;914;48.118;11.600;2022-09-19T05:00:23;3.07;;;1.10;;
1829;SDS011;914;48.118;11.600;2022-09-19T05:03:07;4.90;;;1.43;;
1829;SDS011;914;48.118;11.600;2022-09-19T05:05:35;3.23;;;1.10;;
1829;SDS011;914;48.118;11.600;2022-09-19T05:08:02;2.57;;;1.00;;
1829;SDS011;914;48.118;11.600;2022-09-19T05:10:30;4.57;;;1.10;;
1829;SDS011;914;48.118;11.600;2022-09-19T05:12:57;3.80;;;1.20;;
1829;SDS011;914;48.118;11.600;2022-09-19T05:15:23;4.73;;;1.17;;
1829;SDS011;914;48.118;11.600;2022-09-19T05:17:50;6.40;;;1.60;;
1829;SDS011;914;48.118;11.600;2022-09-19T05:20:19;4.70;;;1.27;;
1829;SDS011;914;48.118;11.600;2022-09-19T05:22:46;6.63;;;1.57;;
1829;SDS011;914;48.118;11.600;2022-09-19T05:25:11;4.07;;;1.30;;
1829;SDS011;914;48.118;11.600;2022-09-19T05:27:40;4.90;;;1.47;;
1829;SDS011;914;48.118;11.600;2022-09-19T05:30:07;8.00;;;1.13;;
1829;SDS011;914;48.118;11.600;2022-09-19T05:32:33;9.67;;;1.50;;
1829;SDS011;914;48.118;11.600;2022-09-19T05:34:59;5.50;;;1.33;;
1829;SDS011;914;48.118;11.600;2022-09-19T05:37:28;5.83;;;1.37;;
1829;SDS011;914;48.118;11.600;2022-09-19T05:39:55;4.00;;;1.17;;
1829;SDS011;914;48.118;11.600;2022-09-19T05:42:21;4.53;;;1.20;;
1829;SDS011;914;48.118;11.600;2022-09-19T05:44:46;3.33;;;1.10;;
1829;SDS011;914;48.118;11.600;2022-09-19T05:47:12;9.20;;;1.37;;
1829;SDS011;914;48.118;11.600;2022-09-19T05:49:38;4.53;;;1.30;;
1829;SDS011;914;48.118;11.600;2022-09-19T05:52:04;9.87;;;1.50;;
1829;SDS011;914;48.118;11.600;2022-09-19T05:54:48;6.83;;;1.73;;
1829;SDS011;914;48.118;11.600;2022-09-19T05:57:14;4.23;;;1.27;;
1829;SDS011;914;48.118;11.600;2022-09-19T05:59:41;4.03;;;1.43;;
1829;SDS011;914;48.118;11.600;2022-09-19T06:02:07;4.23;;;1.47;;
1829;SDS011;914;48.118;11.600;2022-09-19T06:04:35;5.23;;;1.80;;
1829;SDS011;914;48.118;11.600;2022-09-19T06:07:00;4.47;;;1.70;;
1829;SDS011;914;48.118;11.600;2022-09-19T06:09:26;4.30;;;1.23;;
1829;SDS011;914;48.118;11.600;2022-09-19T06:11:53;7.03;;;1.57;;
1829;SDS011;914;48.118;11.600;2022-09-19T06:14:18;5.53;;;1.50;;
1829;SDS011;914;48.118;11.600;2022-09-19T06:16:47;5.53;;;2.00;;
1829;SDS011;914;48.118;11.600;2022-09-19T06:19:13;6.37;;;1.63;;
1829;SDS011;914;48.118;11.600;2022-09-19T06:21:38;7.30;;;1.47;;
1829;SDS011;914;48.118;11.600;2022-09-19T06:24:04;5.73;;;1.73;;
1829;SDS011;914;48.118;11.600;2022-09-19T06:26:32;6.47;;;1.60;;
1829;SDS011;914;48.118;11.600;2022-09-19T06:28:59;9.20;;;1.50;;
1829;SDS011;914;48.118;11.600;2022-09-19T06:31:26;5.60;;;1.93;;
1829;SDS011;914;48.118;11.600;2022-09-19T06:33:53;9.17;;;1.60;;
1829;SDS011;914;48.118;11.600;2022-09-19T06:36:18;5.90;;;1.60;;
1829;SDS011;914;48.118;11.600;2022-09-19T06:38:45;4.70;;;1.27;;
1829;SDS011;914;48.118;11.600;2022-09-19T06:41:10;6.07;;;1.70;;
1829;SDS011;914;48.118;11.600;2022-09-19T06:43:37;8.77;;;2.10;;
1829;SDS011;914;48.118;11.600;2022-09-19T06:46:03;2.30;;;1.40;;
1829;SDS011;914;48.118;11.600;2022-09-19T06:48:29;5.33;;;1.80;;
1829;SDS011;914;48.118;11.600;2022-09-19T06:50:55;5.33;;;1.30;;
1829;SDS011;914;48.118;11.600;2022-09-19T06:53:21;3.87;;;1.43;;
1829;SDS011;914;48.118;11.600;2022-09-19T06:55:47;5.57;;;1.87;;
1829;SDS011;914;48.118;11.600;2022-09-19T06:58:13;5.93;;;1.70;;
1829;SDS011;914;48.118;11.600;2022-09-19T07:00:40;7.33;;;1.50;;
1829;SDS011;914;48.118;11.600;2022-09-19T07:03:10;5.50;;;1.70;;
1829;SDS011;914;48.118;11.600;2022-09-19T07:05:38;9.10;;;1.67;;
1829;SDS011;914;48.118;11.600;2022-09-19T07:08:07;5.73;;;1.30;;
1829;SDS011;914;48.118;11.600;2022-09-19T07:10:34;4.37;;;1.30;;
1829;SDS011;914;48.118;11.600;2022-09-19T07:13:01;6.13;;;1.47;;
1829;SDS011;914;48.118;11.600;2022-09-19T07:15:28;5.57;;;1.57;;
1829;SDS011;914;48.118;11.600;2022-09-19T07:17:56;6.73;;;2.07;;
1829;SDS011;914;48.118;11.600;2022-09-19T07:20:23;4.50;;;1.40;;
1829;SDS011;914;48.118;11.600;2022-09-19T07:22:57;9.37;;;2.10;;
1829;SDS011;914;48.118;11.600;2022-09-19T07:25:31;5.47;;;1.40;;
1829;SDS011;914;48.118;11.600;2022-09-19T07:27:58;8.70;;;1.87;;
1829;SDS011;914;48.118;11.600;2022-09-19T07:30:31;7.00;;;1.37;;
1829;SDS011;914;48.118;11.600;2022-09-19T07:32:58;5.93;;;1.23;;
1829;SDS011;914;48.118;11.600;2022-09-19T07:35:25;5.23;;;1.50;;
1829;SDS011;914;48.118;11.600;2022-09-19T07:37:53;2.37;;;1.10;;
1829;SDS011;914;48.118;11.600;2022-09-19T07:40:20;3.43;;;1.13;;
1829;SDS011;914;48.118;11.600;2022-09-19T07:42:46;7.63;;;1.63;;
1829;SDS011;914;48.118;11.600;2022-09-19T07:45:12;6.07;;;1.37;;
1829;SDS011;914;48.118;11.600;2022-09-19T07:47:44;6.07;;;1.40;;
1829;SDS011;914;48.118;11.600;2022-09-19T07:50:11;5.20;;;1.50;;
1829;SDS011;914;48.118;11.600;2022-09-19T07:52:42;7.23;;;1.80;;
1829;SDS011;914;48.118;11.600;2022-09-19T07:55:10;4.53;;;1.63;;
1829;SDS011;914;48.118;11.600;2022-09-19T07:57:36;8.60;;;1.70;;
1829;SDS011;914;48.118;11.600;2022-09-19T08:00:02;4.40;;;1.53;;
1829;SDS011;914;48.118;11.600;2022-09-19T08:02:29;6.93;;;1.47;;
1829;SDS011;914;48.118;11.600;2022-09-19T08:04:54;2.90;;;1.40;;
1829;SDS011;914;48.118;11.600;2022-09-19T08:07:20;5.27;;;1.47;;
1829;SDS011;914;48.118;11.600;2022-09-19T08:09:46;4.93;;;1.60;;
1829;SDS011;914;48.118;11.600;2022-09-19T08:12:12;7.60;;;1.63;;
1829;SDS011;914;48.118;11.600;2022-09-19T08:14:38;8.00;;;1.60;;
1829;SDS011;914;48.118;11.600;2022-09-19T08:17:04;6.10;;;1.70;;
1829;SDS011;914;48.118;11.600;2022-09-19T08:19:30;6.47;;;2.40;;
1829;SDS011;914;48.118;11.600;2022-09-19T08:21:57;6.30;;;1.63;;
1829;SDS011;914;48.118;11.600;2022-09-19T08:24:23;5.30;;;1.80;;
1829;SDS011;914;48.118;11.600;2022-09-19T08:26:49;2.50;;;1.53;;
1829;SDS011;914;48.118;11.600;2022-09-19T08:29:15;2.13;;;1.40;;
1829;SDS011;914;48.118;11.600;2022-09-19T08:31:41;3.60;;;1.53;;
1829;SDS011;914;48.118;11.600;2022-09-19T08:34:07;5.27;;;1.23;;
1829;SDS011;914;48.118;11.600;2022-09-19T08:36:34;7.03;;;1.50;;
1829;SDS011;914;48.118;11.600;2022-09-19T08:39:00;5.30;;;1.50;;
1829;SDS011;914;48.118;11.600;2022-09-19T08:47:34;6.73;;;1.53;;
1829;SDS011;914;48.118;11.600;2022-09-19T08:50:05;4.53;;;1.20;;
1829;SDS011;914;48.118;11.600;2022-09-19T08:52:52;4.63;;;1.50;;
1829;SDS011;914;48.118;11.600;2022-09-19T08:55:22;4.40;;;1.63;;
1829;SDS011;914;48.118;11.600;2022-09-19T08:58:00;4.93;;;1.40;;
1829;SDS011;914;48.118;11.600;2022-09-19T09:00:35;4.53;;;1.30;;
1829;SDS011;914;48.118;11.600;2022-09-19T09:03:06;4.33;;;1.00;;
1829;SDS011;914;48.118;11.600;2022-09-19T09:11:17;3.47;;;1.30;;
1829;SDS011;914;48.118;11.600;2022-09-19T09:17:22;5.67;;;1.40;;
1829;SDS011;914;48.118;11.600;2022-09-19T09:22:42;6.67;;;1.67;;
1829;SDS011;914;48.118;11.600;2022-09-19T09:25:22;4.73;;;1.53;;
1829;SDS011;914;48.118;11.600;2022-09-19T09:30:37;2.27;;;1.20;;
1829;SDS011;914;48.118;11.600;2022-09-19T09:35:40;3.30;;;1.30;;
1829;SDS011;914;48.118;11.600;2022-09-19T09:42:01;2.57;;;1.13;;
1829;SDS011;914;48.118;11.600;2022-09-19T09:49:29;4.00;;;1.20;;
1829;SDS011;914;48.118;11.600;2022-09-19T09:54:49;2.30;;;0.90;;
1829;SDS011;914;48.118;11.600;2022-09-19T10:00:22;2.90;;;1.03;;
1829;SDS011;914;48.118;11.600;2022-09-19T10:09:12;3.77;;;1.33;;
1829;SDS011;914;48.118;11.600;2022-09-19T10:11:53;4.37;;;1.30;;
1829;SDS011;914;48.118;11.600;2022-09-19T10:14:29;3.67;;;1.00;;
1829;SDS011;914;48.118;11.600;2022-09-19T10:16:58;3.47;;;0.90;;
1829;SDS011;914;48.118;11.600;2022-09-19T10:19:30;1.70;;;1.10;;
1829;SDS011;914;48.118;11.600;2022-09-19T10:22:01;3.93;;;1.20;;
1829;SDS011;914;48.118;11.600;2022-09-19T10:27:26;2.17;;;1.07;;
1829;SDS011;914;48.118;11.600;2022-09-19T10:32:43;3.47;;;1.10;;
1829;SDS011;914;48.118;11.600;2022-09-19T10:38:01;2.60;;;1.20;;
1829;SDS011;914;48.118;11.600;2022-09-19T10:40:35;3.23;;;1.03;;
1829;SDS011;914;48.118;11.600;2022-09-19T10:43:02;4.20;;;1.20;;
1829;SDS011;914;48.118;11.600;2022-09-19T10:45:34;6.13;;;1.10;;
1829;SDS011;914;48.118;11.600;2022-09-19T10:50:40;3.10;;;0.90;;
1829;SDS011;914;48.118;11.600;2022-09-19T10:53:15;2.50;;;0.97;;
1829;SDS011;914;48.118;11.600;2022-09-19T10:55:43;2.57;;;1.13;;
1829;SDS011;914;48.118;11.600;2022-09-19T10:58:12;1.13;;;0.73;;
1829;SDS011;914;48.118;11.600;2022-09-19T11:00:53;2.20;;;1.20;;
1829;SDS011;914;48.118;11.600;2022-09-19T11:03:33;2.67;;;1.30;;
1829;SDS011;914;48.118;11.600;2022-09-19T11:06:11;3.53;;;0.90;;
1829;SDS011;914;48.118;11.600;2022-09-19T11:08:45;2.83;;;1.20;;
1829;SDS011;914;48.118;11.600;2022-09-19T11:17:13;3.67;;;1.03;;
1829;SDS011;914;48.118;11.600;2022-09-19T11:27:37;2.90;;;1.00;;
1829;SDS011;914;48.118;11.600;2022-09-19T11:30:31;2.30;;;1.23;;
1829;SDS011;914;48.118;11.600;2022-09-19T11:38:38;4.50;;;1.20;;
1829;SDS011;914;48.118;11.600;2022-09-19T11:58:30;2.43;;;0.80;;
1829;SDS011;914;48.118;11.600;2022-09-19T12:04:10;1.93;;;0.90;;
1829;SDS011;914;48.118;11.600;2022-09-19T12:09:39;5.30;;;1.10;;
1829;SDS011;914;48.118;11.600;2022-09-19T12:12:18;3.63;;;1.80;;
1829;SDS011;914;48.118;11.600;2022-09-19T12:14:54;1.20;;;0.90;;
1829;SDS011;914;48.118;11.600;2022-09-19T12:17:34;3.10;;;0.70;;
1829;SDS011;914;48.118;11.600;2022-09-19T12:20:18;2.43;;;1.00;;
1829;SDS011;914;48.118;11.600;2022-09-19T12:22:56;2.33;;;1.17;;
1829;SDS011;914;48.118;11.600;2022-09-19T12:25:46;4.53;;;1.23;;
1829;SDS011;914;48.118;11.600;2022-09-19T12:28:13;1.53;;;1.03;;
1829;SDS011;914;48.118;11.600;2022-09-19T12:30:43;4.33;;;1.20;;
1829;SDS011;914;48.118;11.600;2022-09-19T12:36:20;2.77;;;0.60;;
1829;SDS011;914;48.118;11.600;2022-09-19T12:38:56;2.30;;;1.00;;
1829;SDS011;914;48.118;11.600;2022-09-19T12:50:02;6.40;;;1.10;;
1829;SDS011;914;48.118;11.600;2022-09-19T12:53:27;3.03;;;1.27;;
1829;SDS011;914;48.118;11.600;2022-09-19T12:55:38;3.10;;;1.00;;
1829;SDS011;914;48.118;11.600;2022-09-19T12:58:21;3.00;;;1.00;;
1829;SDS011;914;48.118;11.600;2022-09-19T13:00:54;2.33;;;0.90;;
1829;SDS011;914;48.118;11.600;2022-09-19T13:03:38;2.33;;;0.80;;
1829;SDS011;914;48.118;11.600;2022-09-19T13:06:10;2.10;;;1.10;;
1829;SDS011;914;48.118;11.600;2022-09-19T13:11:29;3.00;;;0.90;;
1829;SDS011;914;48.118;11.600;2022-09-19T13:14:38;1.57;;;1.27;;
1829;SDS011;914;48.118;11.600;2022-09-19T13:17:24;2.13;;;0.93;;
1829;SDS011;914;48.118;11.600;2022-09-19T13:20:17;1.77;;;0.67;;
1829;SDS011;914;48.118;11.600;2022-09-19T13:23:08;2.37;;;1.10;;
1829;SDS011;914;48.118;11.600;2022-09-19T13:25:56;2.50;;;0.80;;
1829;SDS011;914;48.118;11.600;2022-09-19T13:28:24;2.57;;;1.07;;
1829;SDS011;914;48.118;11.600;2022-09-19T13:33:40;2.43;;;0.77;;
1829;SDS011;914;48.118;11.600;2022-09-19T13:38:55;3.67;;;1.00;;
1829;SDS011;914;48.118;11.600;2022-09-19T13:52:08;2.83;;;1.03;;
1829;SDS011;914;48.118;11.600;2022-09-19T13:57:34;2.57;;;1.10;;
1829;SDS011;914;48.118;11.600;2022-09-19T14:03:05;3.10;;;1.00;;
1829;SDS011;914;48.118;11.600;2022-09-19T14:05:41;1.73;;;1.10;;
1829;SDS011;914;48.118;11.600;2022-09-19T14:08:23;2.57;;;0.97;;
1829;SDS011;914;48.118;11.600;2022-09-19T14:10:59;2.93;;;0.80;;
1829;SDS011;914;48.118;11.600;2022-09-19T14:13:33;6.33;;;1.57;;
1829;SDS011;914;48.118;11.600;2022-09-19T14:21:03;2.00;;;1.00;;
1829;SDS011;914;48.118;11.600;2022-09-19T14:23:34;1.97;;;0.80;;
1829;SDS011;914;48.118;11.600;2022-09-19T14:42:31;5.13;;;1.20;;
1829;SDS011;914;48.118;11.600;2022-09-19T14:47:59;3.37;;;0.93;;
1829;SDS011;914;48.118;11.600;2022-09-19T14:50:36;1.53;;;0.80;;
1829;SDS011;914;48.118;11.600;2022-09-19T14:53:20;6.60;;;0.90;;
1829;SDS011;914;48.118;11.600;2022-09-19T14:55:51;3.13;;;1.10;;
1829;SDS011;914;48.118;11.600;2022-09-19T14:58:31;1.27;;;0.97;;
1829;SDS011;914;48.118;11.600;2022-09-19T15:01:06;1.67;;;0.80;;
1829;SDS011;914;48.118;11.600;2022-09-19T15:06:16;1.47;;;0.70;;
1829;SDS011;914;48.118;11.600;2022-09-19T15:08:47;3.17;;;0.67;;
1829;SDS011;914;48.118;11.600;2022-09-19T15:11:13;3.73;;;2.07;;
1829;SDS011;914;48.118;11.600;2022-09-19T15:13:47;1.00;;;0.77;;
1829;SDS011;914;48.118;11.600;2022-09-19T15:16:15;1.33;;;0.80;;
1829;SDS011;914;48.118;11.600;2022-09-19T15:18:42;1.43;;;0.80;;
1829;SDS011;914;48.118;11.600;2022-09-19T15:21:33;2.53;;;0.70;;
1829;SDS011;914;48.118;11.600;2022-09-19T15:24:00;1.30;;;0.93;;
1829;SDS011;914;48.118;11.600;2022-09-19T15:26:28;1.63;;;0.80;;
1829;SDS011;914;48.118;11.600;2022-09-19T15:32:22;2.33;;;0.80;;
1829;SDS011;914;48.118;11.600;2022-09-19T15:35:03;0.70;;;0.50;;
1829;SDS011;914;48.118;11.600;2022-09-19T15:37:41;1.50;;;0.60;;
1829;SDS011;914;48.118;11.600;2022-09-19T15:40:14;1.40;;;0.73;;
1829;SDS011;914;48.118;11.600;2022-09-19T15:42:50;0.70;;;0.70;;
1829;SDS011;914;48.118;11.600;2022-09-19T15:47:56;1.37;;;0.70;;
1829;SDS011;914;48.118;11.600;2022-09-19T15:50:23;0.70;;;0.70;;
1829;SDS011;914;48.118;11.600;2022-09-19T15:52:52;4.27;;;0.80;;
1829;SDS011;914;48.118;11.600;2022-09-19T15:55:22;2.47;;;1.03;;
1829;SDS011;914;48.118;11.600;2022-09-19T15:57:55;1.10;;;0.90;;
1829;SDS011;914;48.118;11.600;2022-09-19T16:00:23;2.57;;;0.80;;
1829;SDS011;914;48.118;11.600;2022-09-19T16:02:52;1.57;;;0.70;;
1829;SDS011;914;48.118;11.600;2022-09-19T16:05:29;1.40;;;0.87;;
1829;SDS011;914;48.118;11.600;2022-09-19T16:08:00;0.70;;;0.70;;
1829;SDS011;914;48.118;11.600;2022-09-19T16:11:25;1.83;;;0.80;;
1829;SDS011;914;48.118;11.600;2022-09-19T16:13:54;2.80;;;0.80;;
1829;SDS011;914;48.118;11.600;2022-09-19T16:16:44;1.00;;;0.90;;
1829;SDS011;914;48.118;11.600;2022-09-19T16:21:55;2.03;;;0.80;;
1829;SDS011;914;48.118;11.600;2022-09-19T16:24:23;1.40;;;0.90;;
1829;SDS011;914;48.118;11.600;2022-09-19T16:26:53;1.70;;;0.90;;
1829;SDS011;914;48.118;11.600;2022-09-19T16:29:21;2.00;;;0.80;;
1829;SDS011;914;48.118;11.600;2022-09-19T16:31:51;1.73;;;0.90;;
1829;SDS011;914;48.118;11.600;2022-09-19T16:34:23;1.60;;;0.60;;
1829;SDS011;914;48.118;11.600;2022-09-19T16:37:06;2.60;;;0.80;;
1829;SDS011;914;48.118;11.600;2022-09-19T16:39:47;2.73;;;0.80;;
1829;SDS011;914;48.118;11.600;2022-09-19T16:49:43;2.00;;;0.77;;
1829;SDS011;914;48.118;11.600;2022-09-19T16:54:44;3.27;;;1.07;;
1829;SDS011;914;48.118;11.600;2022-09-19T16:57:13;7.63;;;1.97;;
1829;SDS011;914;48.118;11.600;2022-09-19T16:59:44;1.90;;;1.03;;
1829;SDS011;914;48.118;11.600;2022-09-19T17:02:13;0.97;;;0.77;;
1829;SDS011;914;48.118;11.600;2022-09-19T17:04:45;1.67;;;0.97;;
1829;SDS011;914;48.118;11.600;2022-09-19T17:07:11;2.57;;;0.80;;
1829;SDS011;914;48.118;11.600;2022-09-19T17:09:37;2.07;;;0.93;;
1829;SDS011;914;48.118;11.600;2022-09-19T17:12:03;1.53;;;1.00;;
1829;SDS011;914;48.118;11.600;2022-09-19T17:14:29;2.30;;;0.97;;
1829;SDS011;914;48.118;11.600;2022-09-19T17:16:55;1.60;;;0.90;;
1829;SDS011;914;48.118;11.600;2022-09-19T17:19:21;1.63;;;0.90;;
1829;SDS011;914;48.118;11.600;2022-09-19T17:21:47;0.90;;;0.90;;
1829;SDS011;914;48.118;11.600;2022-09-19T17:24:12;1.40;;;0.90;;
1829;SDS011;914;48.118;11.600;2022-09-19T17:26:39;2.47;;;1.17;;
1829;SDS011;914;48.118;11.600;2022-09-19T17:29:04;1.80;;;0.90;;
1829;SDS011;914;48.118;11.600;2022-09-19T17:31:30;1.83;;;1.00;;
1829;SDS011;914;48.118;11.600;2022-09-19T17:33:56;3.13;;;1.10;;
1829;SDS011;914;48.118;11.600;2022-09-19T17:36:22;5.73;;;1.00;;
1829;SDS011;914;48.118;11.600;2022-09-19T17:38:48;3.17;;;1.10;;
1829;SDS011;914;48.118;11.600;2022-09-19T17:41:13;3.73;;;1.07;;
1829;SDS011;914;48.118;11.600;2022-09-19T17:43:40;1.60;;;1.00;;
1829;SDS011;914;48.118;11.600;2022-09-19T17:46:09;1.57;;;1.00;;
1829;SDS011;914;48.118;11.600;2022-09-19T17:48:35;1.90;;;1.17;;
1829;SDS011;914;48.118;11.600;2022-09-19T17:51:08;1.90;;;1.00;;
1829;SDS011;914;48.118;11.600;2022-09-19T17:53:41;3.80;;;1.23;;
1829;SDS011;914;48.118;11.600;2022-09-19T17:56:26;1.53;;;1.07;;
1829;SDS011;914;48.118;11.600;2022-09-19T17:58:53;2.10;;;1.10;;
1829;SDS011;914;48.118;11.600;2022-09-19T18:01:27;1.77;;;1.10;;
1829;SDS011;914;48.118;11.600;2022-09-19T18:04:12;3.20;;;1.40;;
1829;SDS011;914;48.118;11.600;2022-09-19T18:06:41;3.70;;;2.10;;
1829;SDS011;914;48.118;11.600;2022-09-19T18:09:08;2.40;;;1.20;;
1829;SDS011;914;48.118;11.600;2022-09-19T18:11:35;4.17;;;2.30;;
1829;SDS011;914;48.118;11.600;2022-09-19T18:14:03;2.30;;;1.60;;
1829;SDS011;914;48.118;11.600;2022-09-19T18:16:31;3.67;;;1.40;;
1829;SDS011;914;48.118;11.600;2022-09-19T18:18:58;2.47;;;1.27;;
1829;SDS011;914;48.118;11.600;2022-09-19T18:21:24;1.30;;;1.20;;
1829;SDS011;914;48.118;11.600;2022-09-19T18:23:52;4.57;;;1.37;;
1829;SDS011;914;48.118;11.600;2022-09-19T18:26:19;2.43;;;1.20;;
1829;SDS011;914;48.118;11.600;2022-09-19T18:28:46;1.30;;;1.20;;
1829;SDS011;914;48.118;11.600;2022-09-19T18:31:17;3.40;;;1.40;;
1829;SDS011;914;48.118;11.600;2022-09-19T18:33:43;1.77;;;1.03;;
1829;SDS011;914;48.118;11.600;2022-09-19T18:36:17;2.33;;;1.40;;
1829;SDS011;914;48.118;11.600;2022-09-19T18:38:45;3.13;;;1.80;;
1829;SDS011;914;48.118;11.600;2022-09-19T18:41:13;2.53;;;1.43;;
1829;SDS011;914;48.118;11.600;2022-09-19T18:43:39;3.13;;;1.60;;
1829;SDS011;914;48.118;11.600;2022-09-19T18:46:09;2.33;;;1.33;;
1829;SDS011;914;48.118;11.600;2022-09-19T18:48:36;3.67;;;1.70;;
1829;SDS011;914;48.118;11.600;2022-09-19T18:51:06;2.53;;;1.53;;
1829;SDS011;914;48.118;11.600;2022-09-19T18:53:34;1.97;;;1.60;;
1829;SDS011;914;48.118;11.600;2022-09-19T18:56:01;1.73;;;1.43;;
1829;SDS011;914;48.118;11.600;2022-09-19T18:58:27;2.20;;;1.63;;
1829;SDS011;914;48.118;11.600;2022-09-19T19:01:00;3.30;;;1.70;;
1829;SDS011;914;48.118;11.600;2022-09-19T19:03:35;3.43;;;1.70;;
1829;SDS011;914;48.118;11.600;2022-09-19T19:06:04;3.80;;;1.67;;
1829;SDS011;914;48.118;11.600;2022-09-19T19:08:34;2.67;;;1.33;;
1829;SDS011;914;48.118;11.600;2022-09-19T19:11:08;2.07;;;1.37;;
1829;SDS011;914;48.118;11.600;2022-09-19T19:13:35;2.87;;;1.50;;